Flight Track Log - Related Links

Times and Time Zones

All times are in EDT time to prevent confusion due to time zone crossing. See the CSJ405 flight status page for this flight to view local times or setup timezone preferences in your user account.

Time Position Orientation Groundspeed Altitude Reporting Facility
EDT Latitude Longitude Course Direction KTS MPH feet Rate Location/Type
Tue 04:51:11 AM 45.6667 -73.9833 180° South 90 104 1,500  Level Montreal Center
Tue 04:52:11 AM 45.6833 -73.9500 54° Northeast 90 104 2,800 1,200 Climbing Montreal Center
Tue 04:53:11 AM 45.6500 -73.9333 161° South 100 115 3,900 1,250 Climbing Montreal Center
Tue 04:54:11 AM 45.6333 -73.9500 215° Southwest 100 115 5,300 1,350 Climbing Montreal Center
Tue 04:55:11 AM 45.6000 -73.9333 161° South 100 115 6,600 1,250 Climbing Montreal Center
Tue 04:56:00 AM 45.4094 -74.0158 180° South  Level Estimated
Tue 04:56:11 AM 45.5667 -73.9333 180° South 100 115 7,800  Level Montreal Center
Tue 04:57:11 AM 45.5500 -73.9333 180° South 100 115 9,000 1,100 Climbing Montreal Center
Tue 04:58:11 AM 45.5167 -73.9333 180° South 110 127 10,000 550 Climbing Montreal Center
Tue 04:59:11 AM 45.4833 -73.9333 180° South 140 161 10,100  Climbing Montreal Center
Tue 05:00:11 AM 45.4333 -73.9167 167° South 160 184 10,000 -50 Descending Montreal Center
Tue 05:01:11 AM 45.3833 -73.9167 180° South 160 184 10,000  Level Montreal Center
Tue 05:02:11 AM 45.3500 -73.9167 180° South 160 184 10,000  Level Montreal Center
Tue 05:03:11 AM 45.3000 -73.9167 180° South 160 184 10,000  Level Montreal Center
Tue 05:04:11 AM 45.2500 -73.9167 180° South 160 184 10,000  Level Montreal Center
Tue 05:05:11 AM 45.2167 -73.9167 180° South 160 184 10,000  Level Montreal Center
Tue 05:06:11 AM 45.1667 -73.9333 193° South 160 184 10,000  Level Montreal Center
Tue 05:07:11 AM 45.1167 -73.9333 180° South 160 184 10,000  Level Montreal Center
Tue 05:08:11 AM 45.0833 -73.9000 145° Southeast 160 184 10,000  Level Montreal Center
Tue 05:09:11 AM 45.0333 -73.9000 180° South 160 184 10,000  Level Montreal Center
Tue 05:10:11 AM 45.0000 -73.9000 180° South 160 184 10,000  Level Montreal Center
Tue 05:11:11 AM 44.9500 -73.9167 193° South 160 184 10,000  Level Montreal Center
Tue 05:12:11 AM 44.9000 -73.9167 180° South 160 184 10,000  Level Montreal Center
Tue 05:13:11 AM 44.8667 -73.9167 180° South 160 184 10,000 70 Level Montreal Center
Tue 05:13:37 AM 44.8561 -73.9100 156° South 156 180 10,100 70 Climbing Boston Center
Tue 05:14:37 AM 44.8144 -73.9061 176° South 161 185 10,100  Level Boston Center
Tue 05:15:37 AM 44.7708 -73.9050 179° South 161 185 10,100  Level Boston Center
Tue 05:16:37 AM 44.7292 -73.9039 179° South 161 185 10,100  Level Boston Center
Tue 05:17:37 AM 44.6833 -73.9028 179° South 156 180 10,100  Level Boston Center
Tue 05:18:37 AM 44.6417 -73.8989 176° South 156 180 10,100  Level Boston Center
Tue 05:19:37 AM 44.5981 -73.8978 179° South 156 180 10,100  Level Boston Center
Tue 05:20:37 AM 44.5500 -73.8967 179° South 156 180 10,100  Level Boston Center
Tue 05:21:37 AM 44.5064 -73.8956 179° South 156 180 10,100  Level Boston Center
Tue 05:22:37 AM 44.4667 -73.8917 176° South 156 180 10,100  Level Boston Center
Tue 05:23:37 AM 44.4189 -73.8903 179° South 156 180 10,100  Level Boston Center
Tue 05:24:37 AM 44.3753 -73.8864 176° South 156 180 10,100  Level Boston Center
Tue 05:25:37 AM 44.3336 -73.8797 173° South 156 180 10,100  Level Boston Center
Tue 05:26:37 AM 44.2919 -73.8814 182° South 156 180 10,100  Level Boston Center
Tue 05:27:37 AM 44.2461 -73.8803 179° South 156 180 10,100  Level Boston Center
Tue 05:28:37 AM 44.2022 -73.8764 176° South 156 180 10,100  Level Boston Center
Tue 05:29:37 AM 44.1544 -73.8725 177° South 156 180 10,100  Level Boston Center
Tue 05:30:37 AM 44.1150 -73.8714 179° South 161 185 10,100  Level Boston Center
Tue 05:31:37 AM 44.0711 -73.8703 179° South 156 180 10,100  Level Boston Center
Tue 05:32:37 AM 44.0275 -73.8694 179° South 161 185 10,100  Level Boston Center
Tue 05:33:37 AM 43.9836 -73.8656 176° South 161 185 10,100  Level Boston Center
Tue 05:34:37 AM 43.9400 -73.8614 176° South 161 185 10,100  Level Boston Center
Tue 05:35:37 AM 43.8878 -73.8603 179° South 161 185 10,100  Level Boston Center
Tue 05:36:37 AM 43.8442 -73.8592 179° South 161 185 10,100  Level Boston Center
Tue 05:37:37 AM 43.7983 -73.8581 179° South 161 185 10,100  Level Boston Center
Tue 05:38:37 AM 43.7525 -73.8569 179° South 161 185 10,100  Level Boston Center
Tue 05:39:37 AM 43.7089 -73.8533 177° South 161 185 10,100  Level Boston Center
Tue 05:40:37 AM 43.6608 -73.8519 179° South 161 185 10,100  Level Boston Center
Tue 05:41:37 AM 43.6233 -73.8483 176° South 161 185 10,100  Level Boston Center
Tue 05:42:37 AM 43.5775 -73.8472 179° South 161 185 10,100  Level Boston Center
Tue 05:43:05 AM 43.5547 -73.8497 185° South 161 185 10,100  Level Boston Center
Tue 05:43:37 AM 43.5339 -73.8464 173° South 161 185 10,100  Level Boston Center
Tue 05:44:11 AM 43.5047 -73.8456 179° South 160 184 10,100  Level Boston Center
Tue 05:44:37 AM 43.4881 -73.8394 165° South 161 185 10,100  Level Boston Center
Tue 05:45:12 AM 43.4608 -73.8475 192° South 160 184 10,100  Level Boston Center
Tue 05:45:38 AM 43.4442 -73.8414 165° South 161 185 10,100  Level Boston Center
Tue 05:46:13 AM 43.4150 -73.8436 183° South 160 184 10,100  Level Boston Center
Tue 05:46:37 AM 43.3964 -73.8372 166° South 161 185 10,100  Level Boston Center
Tue 05:47:19 AM 43.3650 -73.8422 187° South 161 185 10,100  Level Boston Center
Tue 05:47:37 AM 43.3547 -73.8364 158° South 161 185 10,100  Level Boston Center
Tue 05:48:14 AM 43.3233 -73.8386 183° South 162 186 10,100  Level Boston Center
Tue 05:48:37 AM 43.3069 -73.8325 165° South 161 185 10,100 -300 Level Boston Center
Tue 05:49:14 AM 43.2775 -73.8347 183° South 165 190 9,800 -600 Descending Boston Center
Tue 05:49:37 AM 43.2611 -73.8314 172° South 161 185 9,500 -984 Descending Boston Center
Tue 05:50:15 AM 43.2256 -73.8364 186° South 185 213 8,800 -900 Descending Boston Center
Tue 05:50:37 AM 43.2067 -73.8303 167° South 177 204 8,600 -787 Descending Boston Center
Tue 05:51:16 AM 43.1756 -73.8322 183° South 185 213 8,000 -900 Descending Boston Center
Tue 05:51:37 AM 43.1589 -73.8292 172° South 183 211 7,700 -1,000 Descending Boston Center
Tue 05:52:16 AM 43.1233 -73.8339 186° South 185 213 7,000 -1,000 Descending Boston Center
Tue 05:52:37 AM 43.1047 -73.8278 167° South 183 211 6,700 -787 Descending Boston Center
Tue 05:53:17 AM 43.0775 -73.8272 179° South 173 199 6,200 -800 Descending Boston Center
Tue 05:53:37 AM 43.0611 -73.8239 172° South 177 204 5,900 -984 Descending Boston Center
Tue 05:54:18 AM 43.0278 -73.8203 175° South 176 203 5,200 -1,000 Descending Boston Center
Tue 05:54:37 AM 43.0131 -73.8144 164° South 177 204 4,900 -1,000 Descending Boston Center
Tue 05:55:18 AM 42.9758 -73.7994 164° South 180 207 4,200 -800 Descending Boston Center
Tue 05:55:37 AM 42.9633 -73.7906 153° Southeast 177 204 4,100 -98 Descending Boston Center
Tue 05:56:19 AM 42.9322 -73.7758 161° South 165 190 4,100  Level Boston Center
Tue 05:56:37 AM 42.9261 -73.7700 145° Southeast 170 196 4,100  Level Boston Center
Tue 05:57:25 AM 42.8908 -73.7522 160° South 156 180 4,100  Level Boston Center
Tue 05:58:20 AM 42.8536 -73.7317 158° South 159 183 4,100 -365 Level Boston Center
Tue 05:59:20 AM 42.8081 -73.7164 166° South 164 189 3,400 -942 Descending Boston Center
Tue 06:00:21 AM 42.7642 -73.7239 187° South 163 188 2,200 -738 Descending Boston Center
Tue 06:01:22 AM 42.7222 -73.7372 193° South 150 173 1,900 -446 Descending Boston Center
Tue 06:02:22 AM 42.7092 -73.7906 252° West 157 181 1,300 -694 Descending Boston Center
Tue 06:03:23 AM 42.7297 -73.8081 328° Northwest 98 113 500 -787 Descending Boston Center
Tue 06:05:00 AM 42.7333 -73.8000 340° North  Level FlightAware Approximate

Login

Don't have an account? Register now (free) for customized features, flight alerts, and more!